Venividivici — ZCPL9 — position and weather

sailwx.info

Track history (hours):
 
Tides and Currents Weather Stations Pressure Air Temp Water Temp Dewpoint Dewpoint Depression Visibility Wind Speed Wind Dir Waves Ship Positions

Venividivici

Last reported at 2014-Sep-13 09:03 UTC. Time now 2014-Sep-16 15:27 UTC.
Position N 43°31' E 006°57'.

Length 40 m; draft 2 m.

MMSI: 319081000.

Date/timePositionNaut miles runAvg speedWind from/ knotsBaromVisibWave heightAir tempDewpointWater temp
2014-Sep-13 09:03N 43°31' E 006°57'0 0.0
2014-Sep-13 08:28N 43°31' E 006°57'0 0.0
2014-Sep-13 07:28N 43°31' E 006°57'0 0.0
2014-Sep-13 06:29N 43°31' E 006°57'0 0.0
2014-Sep-13 05:24N 43°31' E 006°57'0 0.0
2014-Sep-13 04:24N 43°31' E 006°57'0 0.0
2014-Sep-13 03:25N 43°31' E 006°57'0 0.0
2014-Sep-13 00:21N 43°31' E 006°57'0 0.0
2014-Sep-12 23:22N 43°31' E 006°57'0 0.0
2014-Sep-12 22:22N 43°31' E 006°57'0 0.0
2014-Sep-12 09:19N 43°31' E 006°57'0 0.0
2014-Sep-11 22:20N 43°31' E 006°57'0 0.0
2014-Sep-11 20:22N 43°31' E 006°57'0 0.0
2014-Sep-11 19:28N 43°31' E 006°57'0 0.0
2014-Sep-11 05:14N 43°31' E 006°57'0 0.0
2014-Sep-11 04:20N 43°31' E 006°57'0 0.0
2014-Sep-09 12:19N 43°31' E 006°57'0 0.0
2014-Sep-09 11:23N 43°31' E 006°57'0 0.0
2014-Sep-09 08:17N 43°31' E 006°57'1520.0
2014-Sep-09 07:33N 43°20' E 006°44'  
2014-Sep-06 16:05N 43°16' E 006°38'3 5.4
2014-Sep-06 15:34N 43°14' E 006°40'0 0.2
2014-Sep-06 14:33N 43°14' E 006°40'0 0.0
2014-Sep-06 13:28N 43°14' E 006°40'0 0.0
2014-Sep-06 12:31N 43°14' E 006°40'3 2.6
2014-Sep-06 11:23N 43°16' E 006°38'0 0.0
2014-Sep-06 10:27N 43°16' E 006°38'0 0.0
2014-Sep-06 09:18N 43°16' E 006°38'0 0.0
2014-Sep-06 08:19N 43°16' E 006°38'0 0.0
2014-Sep-06 07:32N 43°16' E 006°38'0 0.0
2014-Sep-06 06:32N 43°16' E 006°38'0 0.0
2014-Sep-06 05:24N 43°16' E 006°38'4 0.2
2014-Sep-05 12:31N 43°14' E 006°42'4 0.1
2014-Sep-03 12:31N 43°17' E 006°38'0 0.0
2014-Sep-03 11:32N 43°16' E 006°38'2 2.2
2014-Sep-03 10:33N 43°18' E 006°40'  
Track history (hours):
 
Tides and Currents Weather Stations Pressure Air Temp Water Temp Dewpoint Dewpoint Depression Visibility Wind Speed Wind Dir Waves Ship Positions

Venividivici

Last reported at 2014-Sep-13 09:03 UTC. Time now 2014-Sep-16 15:27 UTC.
Position N 43°31' E 006°57'.

Length 40 m; draft 2 m.

MMSI: 319081000.

Date/timePositionNaut miles runAvg speedWind from/ knotsBaromVisibWave heightAir tempDewpointWater temp
2014-Sep-13 09:03N 43°31' E 006°57'0 0.0
2014-Sep-13 08:28N 43°31' E 006°57'0 0.0
2014-Sep-13 07:28N 43°31' E 006°57'0 0.0
2014-Sep-13 06:29N 43°31' E 006°57'0 0.0
2014-Sep-13 05:24N 43°31' E 006°57'0 0.0
2014-Sep-13 04:24N 43°31' E 006°57'0 0.0
2014-Sep-13 03:25N 43°31' E 006°57'0 0.0
2014-Sep-13 00:21N 43°31' E 006°57'0 0.0
2014-Sep-12 23:22N 43°31' E 006°57'0 0.0
2014-Sep-12 22:22N 43°31' E 006°57'0 0.0
2014-Sep-12 09:19N 43°31' E 006°57'0 0.0
2014-Sep-11 22:20N 43°31' E 006°57'0 0.0
2014-Sep-11 20:22N 43°31' E 006°57'0 0.0
2014-Sep-11 19:28N 43°31' E 006°57'0 0.0
2014-Sep-11 05:14N 43°31' E 006°57'0 0.0
2014-Sep-11 04:20N 43°31' E 006°57'0 0.0
2014-Sep-09 12:19N 43°31' E 006°57'0 0.0
2014-Sep-09 11:23N 43°31' E 006°57'0 0.0
2014-Sep-09 08:17N 43°31' E 006°57'1520.0
2014-Sep-09 07:33N 43°20' E 006°44'  
2014-Sep-06 16:05N 43°16' E 006°38'3 5.4
2014-Sep-06 15:34N 43°14' E 006°40'0 0.2
2014-Sep-06 14:33N 43°14' E 006°40'0 0.0
2014-Sep-06 13:28N 43°14' E 006°40'0 0.0
2014-Sep-06 12:31N 43°14' E 006°40'3 2.6
2014-Sep-06 11:23N 43°16' E 006°38'0 0.0
2014-Sep-06 10:27N 43°16' E 006°38'0 0.0
2014-Sep-06 09:18N 43°16' E 006°38'0 0.0
2014-Sep-06 08:19N 43°16' E 006°38'0 0.0
2014-Sep-06 07:32N 43°16' E 006°38'0 0.0
2014-Sep-06 06:32N 43°16' E 006°38'0 0.0
2014-Sep-06 05:24N 43°16' E 006°38'4 0.2
2014-Sep-05 12:31N 43°14' E 006°42'4 0.1
2014-Sep-03 12:31N 43°17' E 006°38'0 0.0
2014-Sep-03 11:32N 43°16' E 006°38'2 2.2
2014-Sep-03 10:33N 43°18' E 006°40'  

Dump ship's entire track history